createdAt,value
2023-05-14T00:01:14.931Z,9.90
2023-05-14T00:03:41.551Z,8.93
2023-05-14T00:06:08.978Z,9.27
2023-05-14T00:08:35.779Z,9.43
2023-05-14T00:11:02.195Z,9.88
2023-05-14T00:13:29.130Z,7.72
2023-05-14T00:15:55.602Z,9.65
2023-05-14T00:18:22.003Z,7.60
2023-05-14T00:20:48.426Z,8.98
2023-05-14T00:23:14.752Z,9.60
2023-05-14T00:25:41.145Z,8.15
2023-05-14T00:28:07.570Z,8.38
2023-05-14T00:30:34.911Z,7.47
2023-05-14T00:33:01.476Z,8.85
2023-05-14T00:35:28.011Z,9.40
2023-05-14T00:37:54.370Z,9.13
2023-05-14T00:40:22.882Z,8.75
2023-05-14T00:42:49.498Z,5.43
2023-05-14T00:45:15.861Z,7.97
2023-05-14T00:47:42.374Z,8.63
2023-05-14T00:50:08.911Z,9.82
2023-05-14T00:52:36.019Z,10.90
2023-05-14T00:55:04.038Z,10.13
2023-05-14T00:57:30.486Z,10.63
2023-05-14T00:59:56.976Z,11.02
2023-05-14T01:02:23.495Z,7.85
2023-05-14T01:04:50.309Z,9.02
2023-05-14T01:07:31.976Z,10.10
2023-05-14T01:10:03.276Z,10.05
2023-05-14T01:12:35.668Z,10.18
2023-05-14T01:15:10.834Z,11.07
2023-05-14T01:17:46.260Z,8.98
2023-05-14T01:20:12.752Z,10.18
2023-05-14T01:22:39.105Z,9.95
2023-05-14T01:25:06.093Z,9.23
2023-05-14T01:27:42.605Z,9.23
2023-05-14T01:30:21.936Z,9.23
2023-05-14T01:32:51.107Z,8.88
2023-05-14T01:35:17.916Z,10.18
2023-05-14T01:37:44.581Z,9.35
2023-05-14T01:40:11.499Z,8.73
2023-05-14T01:42:38.380Z,8.45
2023-05-14T01:45:05.157Z,8.02
2023-05-14T01:47:31.583Z,6.75
2023-05-14T01:49:57.891Z,9.02
2023-05-14T01:52:24.392Z,9.07
2023-05-14T01:54:50.812Z,8.35
2023-05-14T01:57:17.194Z,6.55
2023-05-14T01:59:43.733Z,9.55
2023-05-14T02:02:10.043Z,9.75
2023-05-14T02:04:36.411Z,4.90
2023-05-14T02:07:02.782Z,8.75
2023-05-14T02:09:29.267Z,10.02
2023-05-14T02:11:55.713Z,7.75
2023-05-14T02:14:22.068Z,7.05
2023-05-14T02:16:48.369Z,6.90
2023-05-14T02:19:14.898Z,8.02
2023-05-14T02:21:41.347Z,7.82
2023-05-14T02:24:07.775Z,6.45
2023-05-14T02:26:34.701Z,7.57
2023-05-14T02:29:01.011Z,8.07
2023-05-14T02:31:27.334Z,8.10
2023-05-14T02:33:53.810Z,8.77
2023-05-14T02:36:20.469Z,7.57
2023-05-14T02:38:46.790Z,6.90
2023-05-14T02:41:13.188Z,7.82
2023-05-14T02:43:39.532Z,7.70
2023-05-14T02:46:05.999Z,7.93
2023-05-14T02:48:32.372Z,5.97
2023-05-14T02:50:58.708Z,8.02
2023-05-14T02:53:25.047Z,5.88
2023-05-14T02:55:51.385Z,6.60
2023-05-14T02:58:17.851Z,7.00
2023-05-14T03:00:44.191Z,6.53
2023-05-14T03:03:10.870Z,6.82
2023-05-14T03:05:37.830Z,5.53
2023-05-14T03:08:04.179Z,6.68
2023-05-14T03:10:31.142Z,7.75
2023-05-14T03:12:57.512Z,8.75
2023-05-14T03:15:23.890Z,7.05
2023-05-14T03:17:50.329Z,6.38
2023-05-14T03:20:16.842Z,7.28
2023-05-14T03:22:43.138Z,7.90
2023-05-14T03:25:09.645Z,6.38
2023-05-14T03:27:36.130Z,4.75
2023-05-14T03:30:02.590Z,6.07
2023-05-14T03:32:29.593Z,7.85
2023-05-14T03:34:56.256Z,8.20
2023-05-14T03:37:23.166Z,6.03
2023-05-14T03:39:49.486Z,5.70
2023-05-14T03:42:15.891Z,5.90
2023-05-14T03:44:42.202Z,8.20
2023-05-14T03:47:08.526Z,7.30
2023-05-14T03:49:35.150Z,6.97
2023-05-14T03:52:01.590Z,6.03
2023-05-14T03:54:27.968Z,6.78
2023-05-14T03:56:54.263Z,5.93
2023-05-14T03:59:20.570Z,7.60
2023-05-14T04:01:46.973Z,6.45
2023-05-14T04:04:13.522Z,7.50
2023-05-14T04:06:39.975Z,7.82
2023-05-14T04:09:06.362Z,6.28
2023-05-14T04:11:32.720Z,7.68
2023-05-14T04:13:59.069Z,8.55
2023-05-14T04:16:25.812Z,7.80
2023-05-14T04:18:52.197Z,8.30
2023-05-14T04:21:18.545Z,4.97
2023-05-14T04:23:44.921Z,7.55
2023-05-14T04:26:11.319Z,8.10
2023-05-14T04:28:37.676Z,8.15
2023-05-14T04:31:04.415Z,8.70
2023-05-14T04:33:31.072Z,7.07
2023-05-14T04:35:57.480Z,7.65
2023-05-14T04:38:24.023Z,8.15
2023-05-14T04:40:50.445Z,9.02
2023-05-14T04:43:17.596Z,8.85
2023-05-14T04:45:43.934Z,7.75
2023-05-14T04:48:10.546Z,6.90
2023-05-14T04:50:36.921Z,6.35
2023-05-14T04:53:03.286Z,9.75
2023-05-14T04:55:29.692Z,8.45
2023-05-14T04:57:56.218Z,9.77
2023-05-14T05:00:23.372Z,10.57
2023-05-14T05:02:49.966Z,9.48
2023-05-14T05:05:16.438Z,10.10
2023-05-14T05:07:42.777Z,12.48
2023-05-14T05:10:09.421Z,12.95
2023-05-14T05:12:35.851Z,12.82
2023-05-14T05:15:02.257Z,13.85
2023-05-14T05:17:28.961Z,12.57
2023-05-14T05:19:55.369Z,5.78
2023-05-14T05:22:21.683Z,15.45
2023-05-14T05:24:49.831Z,15.43
2023-05-14T05:27:16.608Z,13.52
2023-05-14T05:29:43.838Z,17.15
2023-05-14T05:32:10.283Z,17.38
2023-05-14T05:34:37.899Z,17.17
2023-05-14T05:37:05.958Z,17.67
2023-05-14T05:39:34.753Z,17.27
2023-05-14T05:42:02.364Z,18.58
2023-05-14T05:44:28.754Z,13.25
2023-05-14T05:46:57.266Z,15.45
2023-05-14T05:49:23.988Z,18.85
2023-05-14T05:51:50.595Z,18.10
2023-05-14T05:54:16.905Z,15.85
2023-05-14T05:56:43.344Z,13.32
2023-05-14T05:59:10.040Z,13.75
2023-05-14T06:01:36.625Z,15.77
2023-05-14T06:04:04.511Z,14.27
2023-05-14T06:06:32.612Z,11.32
2023-05-14T06:08:58.954Z,11.02
2023-05-14T06:11:25.315Z,10.60
2023-05-14T06:13:51.708Z,8.95
2023-05-14T06:16:18.156Z,8.43
2023-05-14T06:18:44.501Z,7.57
2023-05-14T06:21:10.932Z,7.80
2023-05-14T06:23:37.416Z,6.80
2023-05-14T06:26:03.871Z,8.27
2023-05-14T06:28:30.334Z,8.25
2023-05-14T06:30:56.657Z,7.20
2023-05-14T06:33:29.726Z,7.43
2023-05-14T06:35:56.918Z,7.88
2023-05-14T06:38:23.352Z,8.23
2023-05-14T06:40:49.677Z,8.10
2023-05-14T06:43:16.001Z,7.43
2023-05-14T06:45:42.316Z,6.55
2023-05-14T06:48:10.267Z,8.63
2023-05-14T06:50:36.733Z,7.97
2023-05-14T06:53:03.039Z,7.10
2023-05-14T06:55:29.444Z,7.20
2023-05-14T06:57:55.955Z,6.50
2023-05-14T07:00:22.758Z,6.03
2023-05-14T07:02:49.497Z,5.88
2023-05-14T07:05:15.855Z,4.85
2023-05-14T07:07:42.234Z,5.43
2023-05-14T07:10:08.648Z,5.80
2023-05-14T07:12:34.973Z,4.95
2023-05-14T07:15:01.504Z,4.80
2023-05-14T07:17:27.981Z,4.97
2023-05-14T07:19:55.826Z,4.38
2023-05-14T07:22:22.321Z,5.47
2023-05-14T07:24:49.378Z,6.18
2023-05-14T07:27:17.107Z,5.55
2023-05-14T07:29:43.904Z,4.38
2023-05-14T07:32:10.422Z,4.15
2023-05-14T07:34:36.749Z,4.32
2023-05-14T07:37:03.523Z,4.38
2023-05-14T07:39:29.923Z,4.40
2023-05-14T07:41:56.504Z,4.25
2023-05-14T07:44:22.868Z,4.57
2023-05-14T07:46:49.196Z,5.10
2023-05-14T07:49:15.576Z,4.25
2023-05-14T07:51:41.895Z,4.53
2023-05-14T07:54:08.262Z,5.43
2023-05-14T07:56:34.706Z,3.97
2023-05-14T07:59:01.039Z,3.90
2023-05-14T08:01:27.684Z,4.18
2023-05-14T08:03:54.177Z,4.10
2023-05-14T08:06:21.886Z,4.32
2023-05-14T08:08:48.267Z,4.40
2023-05-14T08:11:14.621Z,4.38
2023-05-14T08:13:41.551Z,3.88
2023-05-14T08:16:08.118Z,5.43
2023-05-14T08:18:34.475Z,3.42
2023-05-14T08:21:03.240Z,4.63
2023-05-14T08:23:29.958Z,3.80
2023-05-14T08:25:56.388Z,3.60
2023-05-14T08:28:22.738Z,4.00
2023-05-14T08:30:49.186Z,3.90
2023-05-14T08:33:15.581Z,3.92
2023-05-14T08:35:41.904Z,3.40
2023-05-14T08:38:08.522Z,3.78
2023-05-14T08:40:34.897Z,3.45
2023-05-14T08:43:02.048Z,4.05
2023-05-14T08:45:31.532Z,4.13
2023-05-14T08:47:58.443Z,4.13
2023-05-14T08:50:25.786Z,4.00
2023-05-14T08:52:52.972Z,3.70
2023-05-14T08:55:19.861Z,3.72
2023-05-14T08:57:46.480Z,3.78
2023-05-14T09:00:13.226Z,3.15
2023-05-14T09:02:42.276Z,3.22
2023-05-14T09:05:12.490Z,3.33
2023-05-14T09:07:39.064Z,3.08
2023-05-14T09:10:05.878Z,2.60
2023-05-14T09:12:32.380Z,2.55
2023-05-14T09:14:58.733Z,3.75
2023-05-14T09:17:26.010Z,3.42
2023-05-14T09:19:53.301Z,3.45
2023-05-14T09:22:20.121Z,2.65
2023-05-14T09:24:46.572Z,3.58
2023-05-14T09:27:19.262Z,4.22
2023-05-14T09:29:45.562Z,3.35
2023-05-14T09:32:11.923Z,3.55
2023-05-14T09:34:38.450Z,2.65
2023-05-14T09:37:05.940Z,3.58
2023-05-14T09:39:32.824Z,3.10
2023-05-14T09:41:59.405Z,3.30
2023-05-14T09:44:26.181Z,3.70
2023-05-14T09:46:52.756Z,3.90
2023-05-14T09:49:19.257Z,4.22
2023-05-14T09:51:45.716Z,3.40
2023-05-14T09:54:12.246Z,3.70
2023-05-14T09:56:39.616Z,2.85
2023-05-14T09:59:06.093Z,3.63
2023-05-14T10:01:35.878Z,3.70
2023-05-14T10:04:03.875Z,3.72
2023-05-14T10:06:33.141Z,4.00
2023-05-14T10:09:04.043Z,4.30
2023-05-14T10:11:35.040Z,3.47
2023-05-14T10:14:01.443Z,3.95
2023-05-14T10:16:32.103Z,4.18
2023-05-14T10:19:03.448Z,4.20
2023-05-14T10:21:31.768Z,3.92
2023-05-14T10:23:58.365Z,3.45
2023-05-14T10:26:25.060Z,4.10
2023-05-14T10:28:51.514Z,3.70
2023-05-14T10:31:17.863Z,3.00
2023-05-14T10:33:49.189Z,4.38
2023-05-14T10:36:16.073Z,3.60
2023-05-14T10:38:42.402Z,4.70
2023-05-14T10:41:12.880Z,3.15
2023-05-14T10:43:40.322Z,4.55
2023-05-14T10:46:07.464Z,3.63
2023-05-14T10:48:34.577Z,4.03
2023-05-14T10:51:01.292Z,3.30
2023-05-14T10:53:34.903Z,3.65
2023-05-14T10:56:05.930Z,3.10
2023-05-14T10:58:35.155Z,3.03
2023-05-14T11:01:02.155Z,3.35
2023-05-14T11:03:32.026Z,3.47
2023-05-14T11:06:01.898Z,3.22
2023-05-14T11:08:29.481Z,3.38
2023-05-14T11:10:56.226Z,2.90
2023-05-14T11:13:22.668Z,3.22
2023-05-14T11:15:49.420Z,3.20
2023-05-14T11:18:26.434Z,3.40
2023-05-14T11:20:52.857Z,4.13
2023-05-14T11:23:21.054Z,3.17
2023-05-14T11:25:47.432Z,3.30
2023-05-14T11:28:13.922Z,3.30
2023-05-14T11:30:40.360Z,3.13
2023-05-14T11:33:06.808Z,3.38
2023-05-14T11:35:33.178Z,3.35
2023-05-14T11:37:59.680Z,3.05
2023-05-14T11:40:26.207Z,2.17
2023-05-14T11:42:53.561Z,2.90
2023-05-14T11:45:27.271Z,3.22
2023-05-14T11:47:54.738Z,3.05
2023-05-14T11:50:22.043Z,3.38
2023-05-14T11:52:50.753Z,3.28
2023-05-14T11:55:17.541Z,2.83
2023-05-14T11:57:44.069Z,3.38
2023-05-14T12:00:14.615Z,4.03
2023-05-14T12:02:41.126Z,3.83
2023-05-14T12:05:08.908Z,3.72
2023-05-14T12:07:35.950Z,3.17
2023-05-14T12:10:03.369Z,3.70
2023-05-14T12:12:34.302Z,3.60
2023-05-14T12:15:00.634Z,2.88
2023-05-14T12:17:27.046Z,3.67
2023-05-14T12:19:53.884Z,2.95
2023-05-14T12:22:22.218Z,3.10
2023-05-14T12:24:58.462Z,3.35
2023-05-14T12:27:28.574Z,3.63
2023-05-14T12:32:35.508Z,3.50
2023-05-14T12:35:01.922Z,3.42
2023-05-14T12:37:30.068Z,4.05
2023-05-14T12:39:57.565Z,3.75
2023-05-14T12:42:23.961Z,3.65
2023-05-14T12:44:50.508Z,3.10
2023-05-14T12:47:17.259Z,3.05
2023-05-14T12:49:43.679Z,3.42
2023-05-14T12:52:22.727Z,3.60
2023-05-14T12:54:56.542Z,2.50
2023-05-14T12:57:22.852Z,3.47
2023-05-14T12:59:49.177Z,3.67
2023-05-14T13:02:17.355Z,3.70
2023-05-14T13:04:43.890Z,4.60
2023-05-14T13:07:10.745Z,3.53
2023-05-14T13:09:37.291Z,2.53
2023-05-14T13:12:03.929Z,2.63
2023-05-14T13:14:30.363Z,2.67
2023-05-14T13:16:57.287Z,3.90
2023-05-14T13:19:23.668Z,2.63
2023-05-14T13:21:50.076Z,2.90
2023-05-14T13:24:17.473Z,3.08
2023-05-14T13:26:44.900Z,3.45
2023-05-14T13:29:11.426Z,3.75
2023-05-14T13:31:37.830Z,3.28
2023-05-14T13:34:04.263Z,3.38
2023-05-14T13:36:32.240Z,2.58
2023-05-14T13:38:58.592Z,2.90
2023-05-14T13:41:26.203Z,3.35
2023-05-14T13:43:52.539Z,3.42
2023-05-14T13:46:18.900Z,3.08
2023-05-14T13:48:45.327Z,2.13
2023-05-14T13:51:11.760Z,4.22
2023-05-14T13:53:38.164Z,3.20
2023-05-14T13:56:06.441Z,4.43
2023-05-14T13:58:32.800Z,2.58
2023-05-14T14:00:59.247Z,2.85
2023-05-14T14:03:25.600Z,2.58
2023-05-14T14:05:52.521Z,3.00
2023-05-14T14:08:23.778Z,2.60
2023-05-14T14:10:51.048Z,3.78
2023-05-14T14:13:17.446Z,2.55
2023-05-14T14:15:44.376Z,2.58
2023-05-14T14:18:10.877Z,2.58
2023-05-14T14:20:37.346Z,2.28
2023-05-14T14:23:03.917Z,2.20
2023-05-14T14:25:30.307Z,3.10
2023-05-14T14:27:56.658Z,2.55
2023-05-14T14:30:23.001Z,1.98
2023-05-14T14:32:49.607Z,2.50
2023-05-14T14:35:16.761Z,2.75
2023-05-14T14:37:45.568Z,2.15
2023-05-14T14:40:12.080Z,2.92
2023-05-14T14:42:38.600Z,2.13
2023-05-14T14:45:05.537Z,2.83
2023-05-14T14:47:32.082Z,2.83
2023-05-14T14:49:58.627Z,3.42
2023-05-14T14:52:25.733Z,2.00
2023-05-14T14:54:52.243Z,3.70
2023-05-14T14:57:18.737Z,2.97
2023-05-14T14:59:45.096Z,2.25
2023-05-14T15:02:11.451Z,2.47
2023-05-14T15:04:38.750Z,2.03
2023-05-14T15:07:06.051Z,2.33
2023-05-14T15:09:32.407Z,2.33
2023-05-14T15:11:58.975Z,2.33
2023-05-14T15:14:25.333Z,2.63
2023-05-14T15:16:51.888Z,2.30
2023-05-14T15:19:18.416Z,1.67
2023-05-14T15:21:44.869Z,2.58
2023-05-14T15:24:11.477Z,1.70
2023-05-14T15:26:37.767Z,2.00
2023-05-14T15:29:05.641Z,2.17
2023-05-14T15:31:32.305Z,2.05
2023-05-14T15:33:58.739Z,2.42
2023-05-14T15:36:25.192Z,2.67
2023-05-14T15:38:51.595Z,3.03
2023-05-14T15:41:18.034Z,3.03
2023-05-14T15:43:44.567Z,2.70
2023-05-14T15:46:11.243Z,2.60
2023-05-14T15:48:37.677Z,2.22
2023-05-14T15:51:04.064Z,2.03
2023-05-14T15:53:30.453Z,2.28
2023-05-14T15:55:56.872Z,3.40
2023-05-14T15:58:23.226Z,1.75
2023-05-14T16:00:49.639Z,2.88
2023-05-14T16:03:16.988Z,2.90
2023-05-14T16:05:44.744Z,2.45
2023-05-14T16:08:11.177Z,3.20
2023-05-14T16:10:37.514Z,2.58
2023-05-14T16:13:04.088Z,3.45
2023-05-14T16:15:30.604Z,2.60
2023-05-14T16:17:57.038Z,1.95
2023-05-14T16:20:23.716Z,2.03
2023-05-14T16:22:50.342Z,2.17
2023-05-14T16:25:18.745Z,1.95
2023-05-14T16:27:45.149Z,1.83
2023-05-14T16:30:11.630Z,1.77
2023-05-14T16:32:38.378Z,2.20
2023-05-14T16:35:04.896Z,2.10
2023-05-14T16:37:31.274Z,1.90
2023-05-14T16:39:57.771Z,1.60
2023-05-14T16:42:24.110Z,2.30
2023-05-14T16:44:50.947Z,2.20
2023-05-14T16:47:17.355Z,2.53
2023-05-14T16:49:43.726Z,2.58
2023-05-14T16:52:10.026Z,2.53
2023-05-14T16:54:36.521Z,2.22
2023-05-14T16:57:02.958Z,2.30
2023-05-14T16:59:29.328Z,1.92
2023-05-14T17:01:56.026Z,2.10
2023-05-14T17:04:24.974Z,2.08
2023-05-14T17:06:51.417Z,2.08
2023-05-14T17:09:17.887Z,1.75
2023-05-14T17:11:44.275Z,2.10
2023-05-14T17:14:10.651Z,2.03
2023-05-14T17:16:38.698Z,1.90
2023-05-14T17:19:05.069Z,2.05
2023-05-14T17:21:31.550Z,2.50
2023-05-14T17:23:58.011Z,1.85
2023-05-14T17:26:24.355Z,2.20
2023-05-14T17:28:50.754Z,2.35
2023-05-14T17:31:17.170Z,2.08
2023-05-14T17:33:43.525Z,1.83
2023-05-14T17:36:09.878Z,1.98
2023-05-14T17:38:36.461Z,1.70
2023-05-14T17:41:02.785Z,2.30
2023-05-14T17:43:29.116Z,2.25
2023-05-14T17:45:55.499Z,2.28
2023-05-14T17:48:22.784Z,1.90
2023-05-14T17:50:49.392Z,1.58
2023-05-14T17:53:15.814Z,2.83
2023-05-14T17:55:43.390Z,2.15
2023-05-14T17:58:11.469Z,1.85
2023-05-14T18:00:38.093Z,2.20
2023-05-14T18:03:04.623Z,2.17
2023-05-14T18:05:31.704Z,2.00
2023-05-14T18:07:58.505Z,3.67
2023-05-14T18:10:25.150Z,2.75
2023-05-14T18:12:51.595Z,2.50
2023-05-14T18:15:20.360Z,3.30
2023-05-14T18:17:47.054Z,2.30
2023-05-14T18:20:13.495Z,2.72
2023-05-14T18:22:39.866Z,2.63
2023-05-14T18:25:07.205Z,2.45
2023-05-14T18:27:34.007Z,2.63
2023-05-14T18:30:00.643Z,3.30
2023-05-14T18:32:27.163Z,3.35
2023-05-14T18:34:53.599Z,3.60
2023-05-14T18:37:20.129Z,3.15
2023-05-14T18:39:46.468Z,2.83
2023-05-14T18:42:12.811Z,2.67
2023-05-14T18:44:42.925Z,1.98
2023-05-14T18:47:09.506Z,3.08
2023-05-14T18:49:38.649Z,3.40
2023-05-14T18:52:05.086Z,2.67
2023-05-14T18:54:31.417Z,3.13
2023-05-14T18:56:57.873Z,2.38
2023-05-14T18:59:24.273Z,2.58
2023-05-14T19:01:51.303Z,2.63
2023-05-14T19:04:17.746Z,3.00
2023-05-14T19:06:44.080Z,2.63
2023-05-14T19:09:10.945Z,2.72
2023-05-14T19:11:37.425Z,2.67
2023-05-14T19:14:03.915Z,3.90
2023-05-14T19:16:30.433Z,2.65
2023-05-14T19:18:57.115Z,3.08
2023-05-14T19:21:23.474Z,3.03
2023-05-14T19:23:49.844Z,2.70
2023-05-14T19:26:16.365Z,2.83
2023-05-14T19:28:42.874Z,3.05
2023-05-14T19:31:09.230Z,2.72
2023-05-14T19:33:35.740Z,3.30
2023-05-14T19:36:02.094Z,2.95
2023-05-14T19:38:29.606Z,3.63
2023-05-14T19:40:57.029Z,3.60
2023-05-14T19:43:26.137Z,3.30
2023-05-14T19:45:52.687Z,3.35
2023-05-14T19:48:19.273Z,3.47
2023-05-14T19:50:46.352Z,3.58
2023-05-14T19:53:12.922Z,3.63
2023-05-14T19:55:39.262Z,3.50
2023-05-14T19:58:05.704Z,3.25
2023-05-14T20:00:32.092Z,2.30
2023-05-14T20:02:59.484Z,3.10
2023-05-14T20:05:26.846Z,4.10
2023-05-14T20:07:54.542Z,3.95
2023-05-14T20:10:21.405Z,4.07
2023-05-14T20:12:47.872Z,2.03
2023-05-14T20:15:14.226Z,3.35
2023-05-14T20:17:40.750Z,3.53
2023-05-14T20:20:08.189Z,3.13
2023-05-14T20:22:34.560Z,4.15
2023-05-14T20:25:01.054Z,2.50
2023-05-14T20:27:27.422Z,2.75
2023-05-14T20:29:54.218Z,2.60
2023-05-14T20:32:24.909Z,2.92
2023-05-14T20:34:51.908Z,3.25
2023-05-14T20:37:21.551Z,1.77
2023-05-14T20:39:47.987Z,2.50
2023-05-14T20:42:14.337Z,2.70
2023-05-14T20:44:40.743Z,3.25
2023-05-14T20:47:07.228Z,3.28
2023-05-14T20:49:33.552Z,4.00
2023-05-14T20:51:59.964Z,2.25
2023-05-14T20:54:26.294Z,2.50
2023-05-14T20:56:52.627Z,2.17
2023-05-14T20:59:19.236Z,3.58
2023-05-14T21:01:45.736Z,3.25
2023-05-14T21:04:12.316Z,3.75
2023-05-14T21:06:38.869Z,3.30
2023-05-14T21:09:05.348Z,2.80
2023-05-14T21:11:31.663Z,2.90
2023-05-14T21:13:58.094Z,2.45
2023-05-14T21:16:24.481Z,2.55
2023-05-14T21:18:50.950Z,3.55
2023-05-14T21:21:17.421Z,3.65
2023-05-14T21:23:43.780Z,4.40
2023-05-14T21:26:10.133Z,4.30
2023-05-14T21:28:36.467Z,2.15
2023-05-14T21:31:02.816Z,3.92
2023-05-14T21:33:29.214Z,2.85
2023-05-14T21:35:55.648Z,3.28
2023-05-14T21:38:22.063Z,2.92
2023-05-14T21:40:48.466Z,3.83
2023-05-14T21:43:14.838Z,4.60
2023-05-14T21:45:42.751Z,5.32
2023-05-14T21:48:09.141Z,3.88
2023-05-14T21:50:35.568Z,2.50
2023-05-14T21:53:01.947Z,2.30
2023-05-14T21:55:28.726Z,4.07
2023-05-14T21:57:55.343Z,4.25
2023-05-14T22:00:25.151Z,4.30
2023-05-14T22:02:54.440Z,2.30
2023-05-14T22:05:22.161Z,4.30
2023-05-14T22:07:48.744Z,3.67
2023-05-14T22:10:15.702Z,3.75
2023-05-14T22:12:43.315Z,2.92
2023-05-14T22:15:10.441Z,3.88
2023-05-14T22:17:37.011Z,3.03
2023-05-14T22:20:05.513Z,2.88
2023-05-14T22:22:32.203Z,5.05
2023-05-14T22:24:58.659Z,2.70
2023-05-14T22:27:24.978Z,3.85
2023-05-14T22:29:51.354Z,4.28
2023-05-14T22:32:17.755Z,6.45
2023-05-14T22:34:44.225Z,3.13
2023-05-14T22:37:10.633Z,5.18
2023-05-14T22:39:36.968Z,3.80
2023-05-14T22:42:03.319Z,4.55
2023-05-14T22:44:30.140Z,6.32
2023-05-14T22:46:56.720Z,2.63
2023-05-14T22:49:23.167Z,4.35
2023-05-14T22:51:52.437Z,4.93
2023-05-14T22:54:18.806Z,3.72
2023-05-14T22:56:45.549Z,6.53
2023-05-14T22:59:11.893Z,6.47
2023-05-14T23:01:38.371Z,2.50
2023-05-14T23:04:04.813Z,4.18
2023-05-14T23:06:31.697Z,6.60
2023-05-14T23:08:58.092Z,6.38
2023-05-14T23:11:25.387Z,2.80
2023-05-14T23:13:51.784Z,4.80
2023-05-14T23:16:18.178Z,7.20
2023-05-14T23:18:44.720Z,1.85
2023-05-14T23:21:11.532Z,5.32
2023-05-14T23:23:37.873Z,3.78
2023-05-14T23:26:04.399Z,3.05
2023-05-14T23:28:31.156Z,4.15
2023-05-14T23:30:57.562Z,1.65
2023-05-14T23:33:23.903Z,4.88
2023-05-14T23:35:50.236Z,4.40
2023-05-14T23:38:16.617Z,2.45
2023-05-14T23:40:43.022Z,3.17
2023-05-14T23:43:09.352Z,2.88
2023-05-14T23:45:35.769Z,3.83
2023-05-14T23:48:02.206Z,1.33
2023-05-14T23:50:28.619Z,2.92
2023-05-14T23:52:55.170Z,2.88
2023-05-14T23:55:21.883Z,3.15
2023-05-14T23:57:48.479Z,3.03
